createdAt,value
2023-05-19T00:00:09.947Z,9.00
2023-05-19T00:02:39.742Z,8.98
2023-05-19T00:05:07.712Z,8.98
2023-05-19T00:07:38.390Z,8.97
2023-05-19T00:10:06.448Z,8.95
2023-05-19T00:12:33.878Z,8.95
2023-05-19T00:15:01.485Z,8.94
2023-05-19T00:17:28.632Z,8.95
2023-05-19T00:19:56.090Z,8.94
2023-05-19T00:22:23.179Z,8.93
2023-05-19T00:24:50.127Z,8.92
2023-05-19T00:27:17.380Z,8.92
2023-05-19T00:29:44.254Z,8.89
2023-05-19T00:32:11.628Z,8.86
2023-05-19T00:34:38.481Z,8.87
2023-05-19T00:37:05.771Z,8.87
2023-05-19T00:39:32.850Z,8.89
2023-05-19T00:42:00.092Z,8.89
2023-05-19T00:44:27.426Z,8.90
2023-05-19T00:46:55.063Z,8.91
2023-05-19T00:49:22.694Z,8.92
2023-05-19T00:51:50.759Z,8.94
2023-05-19T00:54:18.789Z,8.94
2023-05-19T00:56:45.628Z,8.94
2023-05-19T00:59:13.237Z,8.93
2023-05-19T01:01:40.733Z,8.93
2023-05-19T01:04:10.066Z,8.95
2023-05-19T01:06:38.733Z,8.96
2023-05-19T01:09:05.948Z,8.96
2023-05-19T01:11:32.918Z,8.96
2023-05-19T01:13:59.812Z,8.94
2023-05-19T01:16:40.338Z,8.94
2023-05-19T01:19:25.510Z,8.93
2023-05-19T01:22:27.007Z,8.95
2023-05-19T01:25:02.643Z,8.96
2023-05-19T01:27:48.211Z,8.96
2023-05-19T01:30:27.203Z,8.95
2023-05-19T01:32:58.482Z,8.96
2023-05-19T01:35:26.275Z,8.95
2023-05-19T01:37:57.818Z,8.93
2023-05-19T01:40:26.272Z,8.91
2023-05-19T01:42:57.319Z,8.88
2023-05-19T01:45:25.374Z,8.86
2023-05-19T01:47:58.536Z,8.82
2023-05-19T01:50:26.101Z,8.76
2023-05-19T01:52:53.262Z,8.69
2023-05-19T01:55:21.360Z,8.63
2023-05-19T01:58:20.162Z,8.58
2023-05-19T02:01:07.031Z,8.53
2023-05-19T02:03:48.222Z,8.46
2023-05-19T02:06:33.735Z,8.40
2023-05-19T02:09:23.461Z,8.35
2023-05-19T02:12:03.420Z,8.30
2023-05-19T02:14:35.508Z,8.26
2023-05-19T02:17:05.074Z,8.22
2023-05-19T02:19:35.686Z,8.18
2023-05-19T02:22:02.667Z,8.13
2023-05-19T02:24:29.972Z,8.09
2023-05-19T02:26:56.766Z,8.04
2023-05-19T02:29:24.182Z,7.99
2023-05-19T02:31:51.423Z,7.94
2023-05-19T02:34:18.273Z,7.92
2023-05-19T02:36:45.386Z,7.89
2023-05-19T02:39:13.010Z,7.86
2023-05-19T02:41:40.332Z,7.83
2023-05-19T02:44:07.612Z,7.79
2023-05-19T02:46:34.579Z,7.76
2023-05-19T02:49:01.664Z,7.72
2023-05-19T02:51:28.607Z,7.71
2023-05-19T02:53:55.463Z,7.71
2023-05-19T02:56:22.279Z,7.70
2023-05-19T02:58:49.656Z,7.67
2023-05-19T03:01:16.893Z,7.65
2023-05-19T03:03:44.117Z,7.64
2023-05-19T03:06:11.298Z,7.64
2023-05-19T03:08:40.124Z,7.63
2023-05-19T03:11:09.193Z,7.63
2023-05-19T03:13:36.072Z,7.63
2023-05-19T03:16:03.429Z,7.61
2023-05-19T03:18:31.044Z,7.57
2023-05-19T03:20:58.118Z,7.54
2023-05-19T03:23:25.100Z,7.52
2023-05-19T03:25:54.141Z,7.51
2023-05-19T03:28:21.457Z,7.51
2023-05-19T03:30:50.101Z,7.50
2023-05-19T03:33:17.302Z,7.49
2023-05-19T03:35:44.550Z,7.49
2023-05-19T03:38:11.169Z,7.48
2023-05-19T03:40:38.604Z,7.47
2023-05-19T03:43:05.608Z,7.46
2023-05-19T03:45:32.655Z,7.44
2023-05-19T03:47:59.648Z,7.43
2023-05-19T03:50:29.206Z,7.42
2023-05-19T03:52:56.374Z,7.39
2023-05-19T03:55:23.137Z,7.38
2023-05-19T03:57:50.148Z,7.35
2023-05-19T04:00:18.147Z,7.33
2023-05-19T04:02:45.028Z,7.32
2023-05-19T04:05:12.083Z,7.31
2023-05-19T04:07:39.062Z,7.33
2023-05-19T04:10:06.341Z,7.37
2023-05-19T04:12:33.228Z,7.40
2023-05-19T04:15:00.660Z,7.45
2023-05-19T04:17:27.995Z,7.49
2023-05-19T04:19:56.288Z,7.55
2023-05-19T04:22:23.414Z,7.60
2023-05-19T04:24:51.764Z,7.66
2023-05-19T04:27:18.800Z,7.72
2023-05-19T04:29:48.230Z,7.79
2023-05-19T04:32:17.440Z,7.85
2023-05-19T04:34:47.271Z,7.93
2023-05-19T04:37:14.172Z,8.00
2023-05-19T04:39:45.326Z,8.07
2023-05-19T04:42:15.208Z,8.14
2023-05-19T04:44:42.005Z,8.20
2023-05-19T04:47:09.200Z,8.27
2023-05-19T04:49:39.408Z,8.33
2023-05-19T04:52:10.886Z,8.40
2023-05-19T04:54:39.847Z,8.44
2023-05-19T04:57:07.552Z,8.51
2023-05-19T04:59:34.910Z,8.58
2023-05-19T05:02:01.727Z,8.65
2023-05-19T05:04:28.994Z,8.73
2023-05-19T05:06:56.472Z,8.80
2023-05-19T05:09:23.393Z,8.90
2023-05-19T05:11:51.638Z,9.00
2023-05-19T05:14:18.904Z,9.10
2023-05-19T05:16:46.440Z,9.20
2023-05-19T05:19:14.062Z,9.31
2023-05-19T05:21:41.796Z,9.39
2023-05-19T05:24:09.534Z,9.49
2023-05-19T05:26:36.678Z,9.58
2023-05-19T05:29:04.045Z,9.67
2023-05-19T05:31:31.538Z,9.78
2023-05-19T05:33:58.815Z,9.87
2023-05-19T05:36:25.756Z,9.95
2023-05-19T05:38:52.611Z,10.03
2023-05-19T05:41:19.715Z,10.14
2023-05-19T05:43:46.853Z,10.21
2023-05-19T05:46:13.912Z,10.26
2023-05-19T05:48:42.590Z,10.37
2023-05-19T05:51:10.011Z,10.42
2023-05-19T05:53:44.861Z,10.44
2023-05-19T05:56:12.811Z,10.48
2023-05-19T05:58:40.720Z,10.59
2023-05-19T06:01:11.376Z,10.74
2023-05-19T06:03:42.737Z,10.87
2023-05-19T06:06:11.053Z,11.04
2023-05-19T06:08:38.190Z,11.18
2023-05-19T06:11:10.924Z,11.35
2023-05-19T06:13:38.555Z,11.48
2023-05-19T06:16:06.348Z,11.60
2023-05-19T06:18:33.344Z,11.75
2023-05-19T06:21:01.683Z,11.89
2023-05-19T06:23:29.185Z,12.04
2023-05-19T06:25:56.635Z,12.21
2023-05-19T06:28:23.302Z,12.36
2023-05-19T06:30:50.199Z,12.47
2023-05-19T06:33:17.194Z,12.59
2023-05-19T06:35:43.904Z,12.71
2023-05-19T06:38:10.742Z,12.79
2023-05-19T06:40:37.616Z,12.85
2023-05-19T06:43:04.899Z,12.89
2023-05-19T06:45:31.862Z,12.96
2023-05-19T06:47:58.512Z,13.05
2023-05-19T06:50:25.890Z,13.13
2023-05-19T06:52:53.176Z,13.16
2023-05-19T06:55:20.442Z,13.17
2023-05-19T06:57:47.394Z,13.26
2023-05-19T07:00:17.549Z,13.36
2023-05-19T07:02:45.905Z,13.37
2023-05-19T07:05:13.022Z,13.38
2023-05-19T07:07:40.031Z,13.42
2023-05-19T07:10:07.864Z,13.51
2023-05-19T07:12:34.727Z,13.62
2023-05-19T07:15:01.595Z,13.73
2023-05-19T07:17:28.566Z,13.78
2023-05-19T07:19:55.582Z,13.88
2023-05-19T07:22:24.219Z,13.93
2023-05-19T07:24:51.406Z,13.99
2023-05-19T07:27:18.423Z,14.11
2023-05-19T07:29:45.250Z,14.15
2023-05-19T07:32:12.018Z,14.22
2023-05-19T07:34:39.097Z,14.31
2023-05-19T07:37:05.940Z,14.38
2023-05-19T07:39:34.128Z,14.49
2023-05-19T07:42:09.113Z,14.60
2023-05-19T07:44:36.145Z,14.67
2023-05-19T07:47:03.046Z,14.72
2023-05-19T07:49:29.929Z,14.84
2023-05-19T07:51:57.150Z,14.94
2023-05-19T07:54:24.215Z,15.06
2023-05-19T07:56:51.181Z,15.20
2023-05-19T07:59:18.639Z,15.25
2023-05-19T08:01:45.860Z,15.38
2023-05-19T08:04:13.504Z,15.51
2023-05-19T08:06:42.797Z,15.61
2023-05-19T08:09:09.621Z,15.72
2023-05-19T08:11:37.102Z,15.82
2023-05-19T08:14:03.827Z,15.92
2023-05-19T08:16:30.820Z,16.05
2023-05-19T08:18:57.818Z,16.16
2023-05-19T08:21:24.963Z,16.24
2023-05-19T08:23:51.925Z,16.38
2023-05-19T08:26:19.083Z,16.58
2023-05-19T08:28:45.924Z,16.78
2023-05-19T08:31:12.817Z,16.98
2023-05-19T08:33:39.761Z,17.16
2023-05-19T08:36:06.634Z,17.28
2023-05-19T08:38:33.775Z,17.41
2023-05-19T08:41:00.480Z,17.50
2023-05-19T08:43:27.438Z,17.58
2023-05-19T08:45:55.478Z,17.65
2023-05-19T08:48:22.778Z,17.68
2023-05-19T08:51:07.199Z,17.80
2023-05-19T08:53:40.234Z,17.97
2023-05-19T08:56:21.812Z,18.06
2023-05-19T08:58:50.336Z,18.20
2023-05-19T09:01:18.320Z,18.26
2023-05-19T09:03:46.388Z,18.28
2023-05-19T09:06:13.383Z,18.39
2023-05-19T09:08:41.674Z,18.56
2023-05-19T09:11:09.764Z,18.71
2023-05-19T09:13:36.638Z,18.86
2023-05-19T09:16:03.746Z,19.04
2023-05-19T09:18:31.192Z,19.10
2023-05-19T09:21:00.246Z,19.19
2023-05-19T09:23:35.140Z,19.28
2023-05-19T09:26:08.963Z,19.37
2023-05-19T09:28:37.723Z,19.40
2023-05-19T09:31:08.541Z,19.44
2023-05-19T09:33:40.353Z,19.54
2023-05-19T09:36:08.863Z,19.68
2023-05-19T09:38:37.020Z,19.90
2023-05-19T09:41:04.683Z,20.06
2023-05-19T09:43:33.782Z,20.20
2023-05-19T09:46:10.107Z,20.26
2023-05-19T09:48:38.962Z,20.28
2023-05-19T09:51:08.235Z,20.34
2023-05-19T09:53:34.973Z,20.32
2023-05-19T09:56:04.072Z,20.28
2023-05-19T09:58:35.358Z,20.21
2023-05-19T10:01:03.751Z,20.14
2023-05-19T10:03:33.156Z,20.23
2023-05-19T10:06:01.646Z,20.37
2023-05-19T10:08:30.626Z,20.38
2023-05-19T10:10:57.958Z,20.34
2023-05-19T10:13:27.400Z,20.46
2023-05-19T10:15:59.010Z,20.66
2023-05-19T10:18:28.035Z,20.86
2023-05-19T10:20:57.893Z,21.08
2023-05-19T10:23:25.564Z,21.34
2023-05-19T10:25:56.423Z,21.61
2023-05-19T10:28:28.192Z,21.84
2023-05-19T10:30:59.455Z,22.09
2023-05-19T10:33:53.448Z,22.22
2023-05-19T10:36:45.717Z,22.45
2023-05-19T10:39:25.248Z,22.66
2023-05-19T10:42:19.942Z,22.63
2023-05-19T10:44:49.421Z,22.70
2023-05-19T10:47:23.559Z,22.82
2023-05-19T10:49:53.276Z,22.90
2023-05-19T10:52:21.968Z,23.03
2023-05-19T10:54:48.975Z,23.08
2023-05-19T10:57:17.207Z,22.99
2023-05-19T10:59:47.323Z,22.87
2023-05-19T11:02:43.277Z,22.97
2023-05-19T11:05:14.333Z,23.29
2023-05-19T11:07:45.190Z,23.63
2023-05-19T11:10:12.310Z,23.93
2023-05-19T11:12:45.470Z,24.15
2023-05-19T11:15:14.768Z,24.29
2023-05-19T11:17:43.153Z,24.24
2023-05-19T11:20:21.859Z,23.86
2023-05-19T11:23:01.938Z,23.77
2023-05-19T11:25:46.924Z,23.84
2023-05-19T11:28:29.374Z,23.86
2023-05-19T11:30:58.891Z,23.96
2023-05-19T11:33:28.796Z,24.12
2023-05-19T11:35:59.231Z,24.34
2023-05-19T11:38:28.449Z,24.32
2023-05-19T11:40:56.475Z,24.15
2023-05-19T11:43:24.564Z,24.30
2023-05-19T11:45:51.771Z,24.47
2023-05-19T11:48:21.733Z,24.55
2023-05-19T11:50:48.756Z,24.59
2023-05-19T11:53:19.853Z,24.60
2023-05-19T11:55:47.842Z,24.67
2023-05-19T11:58:15.888Z,24.67
2023-05-19T12:00:45.932Z,24.87
2023-05-19T12:03:13.267Z,25.21
2023-05-19T12:05:45.693Z,25.72
2023-05-19T12:08:13.281Z,26.23
2023-05-19T12:10:40.864Z,26.67
2023-05-19T12:13:10.907Z,26.45
2023-05-19T12:15:38.681Z,26.07
2023-05-19T12:18:06.737Z,25.72
2023-05-19T12:20:36.183Z,25.91
2023-05-19T12:23:04.090Z,26.48
2023-05-19T12:25:31.935Z,27.03
2023-05-19T12:28:05.498Z,27.61
2023-05-19T12:30:34.707Z,28.09
2023-05-19T12:33:02.623Z,28.42
2023-05-19T12:35:33.912Z,28.57
2023-05-19T12:38:05.383Z,28.88
2023-05-19T12:40:35.109Z,29.16
2023-05-19T12:43:02.583Z,29.60
2023-05-19T12:45:37.249Z,29.57
2023-05-19T12:48:12.364Z,29.43
2023-05-19T12:50:39.247Z,29.78
2023-05-19T12:53:10.047Z,30.81
2023-05-19T12:55:44.926Z,32.01
2023-05-19T12:58:12.651Z,32.84
2023-05-19T13:00:45.242Z,33.66
2023-05-19T13:03:20.258Z,34.74
2023-05-19T13:05:50.480Z,35.68
2023-05-19T13:08:22.021Z,35.64
2023-05-19T13:10:51.675Z,34.22
2023-05-19T13:13:18.583Z,32.86
2023-05-19T13:15:49.411Z,32.04
2023-05-19T13:18:16.857Z,32.65
2023-05-19T13:20:45.106Z,32.26
2023-05-19T13:23:12.619Z,31.41
2023-05-19T13:25:40.247Z,30.68
2023-05-19T13:28:06.940Z,30.03
2023-05-19T13:30:39.234Z,30.62
2023-05-19T13:33:06.578Z,31.98
2023-05-19T13:35:42.566Z,33.18
2023-05-19T13:38:10.567Z,34.49
2023-05-19T13:40:38.028Z,35.69
2023-05-19T13:43:05.076Z,36.37
2023-05-19T13:45:31.908Z,35.35
2023-05-19T13:47:58.536Z,34.00
2023-05-19T13:50:25.671Z,32.55
2023-05-19T13:52:52.480Z,31.29
2023-05-19T13:55:19.349Z,30.22
2023-05-19T13:57:46.440Z,29.84
2023-05-19T14:00:13.913Z,31.00
2023-05-19T14:02:40.988Z,31.72
2023-05-19T14:05:08.056Z,31.60
2023-05-19T14:07:35.224Z,31.29
2023-05-19T14:10:02.824Z,30.58
2023-05-19T14:12:38.149Z,29.89
2023-05-19T14:15:11.580Z,29.20
2023-05-19T14:17:38.854Z,28.66
2023-05-19T14:20:07.373Z,28.19
2023-05-19T14:22:34.195Z,27.77
2023-05-19T14:25:01.933Z,27.45
2023-05-19T14:27:28.405Z,27.58
2023-05-19T14:29:55.057Z,28.99
2023-05-19T14:32:22.161Z,29.57
2023-05-19T14:34:52.876Z,30.27
2023-05-19T14:37:20.498Z,31.45
2023-05-19T14:39:47.393Z,31.53
2023-05-19T14:42:14.049Z,32.18
2023-05-19T14:44:41.031Z,33.28
2023-05-19T14:47:07.740Z,34.53
2023-05-19T14:49:34.559Z,35.31
2023-05-19T14:52:01.445Z,36.29
2023-05-19T14:54:28.187Z,37.47
2023-05-19T14:56:54.884Z,38.13
2023-05-19T14:59:21.753Z,37.58
2023-05-19T15:01:48.465Z,36.35
2023-05-19T15:04:15.188Z,34.94
2023-05-19T15:06:41.950Z,33.61
2023-05-19T15:09:09.338Z,32.14
2023-05-19T15:11:36.057Z,31.07
2023-05-19T15:14:02.701Z,30.58
2023-05-19T15:16:30.203Z,30.68
2023-05-19T15:18:56.872Z,30.59
2023-05-19T15:21:23.544Z,31.30
2023-05-19T15:23:50.534Z,31.77
2023-05-19T15:26:17.430Z,31.41
2023-05-19T15:28:44.064Z,30.92
2023-05-19T15:31:10.789Z,31.15
2023-05-19T15:33:37.448Z,31.19
2023-05-19T15:36:04.421Z,31.19
2023-05-19T15:38:35.441Z,30.69
2023-05-19T15:41:06.770Z,30.08
2023-05-19T15:43:33.478Z,30.20
2023-05-19T15:46:00.222Z,31.25
2023-05-19T15:48:28.838Z,32.21
2023-05-19T15:50:58.319Z,32.79
2023-05-19T15:53:25.793Z,32.89
2023-05-19T15:55:52.651Z,32.19
2023-05-19T15:58:19.349Z,31.50
2023-05-19T16:00:45.980Z,30.68
2023-05-19T16:03:13.011Z,29.92
2023-05-19T16:05:39.684Z,29.13
2023-05-19T16:08:08.485Z,28.30
2023-05-19T16:10:35.749Z,27.48
2023-05-19T16:13:02.565Z,26.82
2023-05-19T16:15:29.508Z,26.20
2023-05-19T16:17:56.791Z,25.63
2023-05-19T16:20:27.786Z,25.14
2023-05-19T16:22:55.448Z,24.69
2023-05-19T16:25:23.098Z,24.26
2023-05-19T16:27:50.612Z,23.89
2023-05-19T16:30:17.383Z,23.59
2023-05-19T16:32:44.529Z,23.32
2023-05-19T16:35:11.180Z,23.05
2023-05-19T16:37:37.948Z,22.78
2023-05-19T16:40:05.555Z,22.54
2023-05-19T16:42:32.367Z,22.31
2023-05-19T16:44:59.249Z,22.11
2023-05-19T16:47:26.433Z,21.95
2023-05-19T16:49:53.206Z,21.81
2023-05-19T16:52:20.104Z,21.68
2023-05-19T16:54:46.956Z,21.49
2023-05-19T16:57:17.028Z,21.34
2023-05-19T16:59:43.866Z,21.25
2023-05-19T17:02:10.611Z,21.21
2023-05-19T17:04:37.623Z,21.18
2023-05-19T17:07:04.592Z,21.10
2023-05-19T17:09:31.525Z,20.97
2023-05-19T17:11:58.288Z,20.84
2023-05-19T17:14:25.093Z,20.74
2023-05-19T17:16:52.548Z,20.65
2023-05-19T17:19:19.519Z,20.60
2023-05-19T17:21:46.360Z,20.51
2023-05-19T17:24:12.933Z,20.39
2023-05-19T17:26:39.749Z,20.31
2023-05-19T17:29:06.522Z,20.26
2023-05-19T17:31:33.491Z,20.21
2023-05-19T17:34:00.454Z,20.18
2023-05-19T17:36:27.184Z,20.14
2023-05-19T17:38:53.856Z,20.07
2023-05-19T17:41:20.974Z,19.97
2023-05-19T17:43:47.939Z,19.89
2023-05-19T17:46:14.825Z,19.81
2023-05-19T17:48:41.742Z,19.76
2023-05-19T17:51:08.880Z,19.71
2023-05-19T17:53:36.487Z,19.66
2023-05-19T17:56:05.875Z,19.62
2023-05-19T17:58:32.848Z,19.61
2023-05-19T18:01:00.222Z,19.59
2023-05-19T18:03:27.383Z,19.58
2023-05-19T18:05:54.604Z,19.55
2023-05-19T18:08:21.780Z,19.53
2023-05-19T18:10:51.568Z,19.52
2023-05-19T18:13:18.683Z,19.47
2023-05-19T18:15:45.311Z,19.42
2023-05-19T18:18:12.085Z,19.41
2023-05-19T18:20:41.019Z,19.37
2023-05-19T18:23:07.985Z,19.31
2023-05-19T18:25:35.693Z,19.27
2023-05-19T18:28:02.583Z,19.20
2023-05-19T18:30:29.344Z,19.12
2023-05-19T18:32:56.179Z,19.03
2023-05-19T18:35:23.123Z,18.96
2023-05-19T18:37:50.612Z,18.84
2023-05-19T18:40:17.268Z,18.73
2023-05-19T18:42:44.232Z,18.64
2023-05-19T18:45:11.489Z,18.55
2023-05-19T18:47:38.440Z,18.44
2023-05-19T18:50:06.937Z,18.32
2023-05-19T18:52:33.596Z,18.23
2023-05-19T18:55:01.133Z,18.13
2023-05-19T18:57:28.001Z,18.04
2023-05-19T18:59:54.611Z,17.95
2023-05-19T19:02:21.451Z,17.84
2023-05-19T19:04:48.370Z,17.72
2023-05-19T19:07:15.146Z,17.58
2023-05-19T19:09:43.707Z,17.42
2023-05-19T19:12:10.825Z,17.29
2023-05-19T19:14:37.618Z,17.17
2023-05-19T19:17:04.712Z,17.05
2023-05-19T19:19:31.552Z,16.93
2023-05-19T19:21:58.460Z,16.82
2023-05-19T19:24:26.427Z,16.71
2023-05-19T19:26:53.069Z,16.58
2023-05-19T19:29:21.900Z,16.46
2023-05-19T19:31:48.706Z,16.33
2023-05-19T19:34:15.662Z,16.22
2023-05-19T19:36:42.436Z,16.11
2023-05-19T19:39:09.427Z,16.01
2023-05-19T19:41:36.620Z,15.92
2023-05-19T19:44:03.555Z,15.83
2023-05-19T19:46:30.311Z,15.75
2023-05-19T19:49:00.775Z,15.67
2023-05-19T19:51:28.189Z,15.60
2023-05-19T19:53:54.851Z,15.52
2023-05-19T19:56:24.704Z,15.46
2023-05-19T19:58:51.420Z,15.39
2023-05-19T20:01:20.402Z,15.31
2023-05-19T20:03:48.092Z,15.24
2023-05-19T20:06:14.761Z,15.16
2023-05-19T20:08:41.602Z,15.09
2023-05-19T20:11:08.174Z,15.02
2023-05-19T20:13:35.041Z,14.95
2023-05-19T20:16:02.090Z,14.87
2023-05-19T20:18:29.930Z,14.80
2023-05-19T20:20:56.936Z,14.74
2023-05-19T20:23:23.835Z,14.66
2023-05-19T20:26:09.395Z,14.61
2023-05-19T20:28:37.592Z,14.56
2023-05-19T20:31:05.164Z,14.51
2023-05-19T20:33:32.338Z,14.46
2023-05-19T20:35:59.400Z,14.42
2023-05-19T20:38:26.205Z,14.37
2023-05-19T20:40:54.199Z,14.32
2023-05-19T20:43:21.216Z,14.27
2023-05-19T20:45:47.855Z,14.23
2023-05-19T20:48:16.014Z,14.18
2023-05-19T20:50:43.307Z,14.14
2023-05-19T20:53:09.999Z,14.09
2023-05-19T20:55:38.175Z,14.05
2023-05-19T20:58:05.094Z,14.01
2023-05-19T21:00:32.106Z,13.97
2023-05-19T21:02:59.191Z,13.92
2023-05-19T21:05:26.431Z,13.87
2023-05-19T21:07:53.200Z,13.83
2023-05-19T21:10:19.990Z,13.79
2023-05-19T21:12:46.940Z,13.75
2023-05-19T21:15:13.902Z,13.70
2023-05-19T21:17:40.670Z,13.65
2023-05-19T21:20:08.648Z,13.62
2023-05-19T21:22:35.915Z,13.59
2023-05-19T21:25:02.979Z,13.56
2023-05-19T21:27:32.095Z,13.54
2023-05-19T21:29:58.944Z,13.53
2023-05-19T21:32:25.775Z,13.51
2023-05-19T21:34:52.926Z,13.49
2023-05-19T21:37:21.068Z,13.46
2023-05-19T21:39:48.835Z,13.45
2023-05-19T21:42:15.646Z,13.44
2023-05-19T21:44:42.834Z,13.42
2023-05-19T21:47:09.679Z,13.40
2023-05-19T21:49:36.168Z,13.37
2023-05-19T21:52:02.947Z,13.34
2023-05-19T21:54:30.071Z,13.32
2023-05-19T21:56:56.663Z,13.29
2023-05-19T21:59:24.890Z,13.26
2023-05-19T22:01:51.875Z,13.23
2023-05-19T22:04:18.967Z,13.21
2023-05-19T22:06:46.313Z,13.19
2023-05-19T22:09:13.286Z,13.17
2023-05-19T22:11:40.425Z,13.14
2023-05-19T22:14:07.349Z,13.10
2023-05-19T22:16:34.206Z,13.06
2023-05-19T22:19:01.346Z,13.02
2023-05-19T22:21:28.428Z,13.00
2023-05-19T22:23:55.339Z,12.98
2023-05-19T22:26:22.235Z,12.95
2023-05-19T22:28:49.430Z,12.92
2023-05-19T22:31:16.688Z,12.90
2023-05-19T22:33:43.216Z,12.89
2023-05-19T22:36:10.994Z,12.86
2023-05-19T22:38:37.687Z,12.83
2023-05-19T22:41:05.054Z,12.81
2023-05-19T22:43:31.840Z,12.78
2023-05-19T22:45:58.921Z,12.77
2023-05-19T22:48:25.706Z,12.75
2023-05-19T22:50:52.674Z,12.74
2023-05-19T22:53:19.534Z,12.72
2023-05-19T22:55:46.828Z,12.70
2023-05-19T22:58:13.485Z,12.67
2023-05-19T23:00:40.455Z,12.65
2023-05-19T23:03:07.219Z,12.61
2023-05-19T23:05:34.838Z,12.57
2023-05-19T23:08:01.672Z,12.53
2023-05-19T23:10:28.342Z,12.48
2023-05-19T23:12:55.194Z,12.44
2023-05-19T23:15:22.023Z,12.40
2023-05-19T23:17:48.675Z,12.35
2023-05-19T23:20:15.597Z,12.29
2023-05-19T23:22:42.423Z,12.26
2023-05-19T23:25:09.249Z,12.22
2023-05-19T23:27:36.429Z,12.19
2023-05-19T23:30:03.845Z,12.16
2023-05-19T23:32:30.938Z,12.14
2023-05-19T23:34:57.642Z,12.11
2023-05-19T23:37:24.782Z,12.08
2023-05-19T23:39:51.505Z,12.05
2023-05-19T23:42:18.620Z,12.02
2023-05-19T23:44:45.618Z,11.99
2023-05-19T23:47:12.302Z,11.97
2023-05-19T23:49:39.013Z,11.94
2023-05-19T23:52:06.336Z,11.90
2023-05-19T23:54:33.115Z,11.86
2023-05-19T23:57:02.132Z,11.82
2023-05-19T23:59:29.173Z,11.79
